createdAt,value
2023-05-12T00:00:48.640Z,8.68
2023-05-12T00:03:16.678Z,8.64
2023-05-12T00:05:44.719Z,8.59
2023-05-12T00:08:12.694Z,8.57
2023-05-12T00:10:41.131Z,8.54
2023-05-12T00:13:09.676Z,8.51
2023-05-12T00:15:37.773Z,8.46
2023-05-12T00:18:05.914Z,8.44
2023-05-12T00:20:34.014Z,8.45
2023-05-12T00:23:01.973Z,8.42
2023-05-12T00:25:29.981Z,8.40
2023-05-12T00:27:57.980Z,8.38
2023-05-12T00:30:25.999Z,8.36
2023-05-12T00:32:54.189Z,8.36
2023-05-12T00:35:22.515Z,8.33
2023-05-12T00:37:50.806Z,8.32
2023-05-12T00:40:19.668Z,8.31
2023-05-12T00:42:48.027Z,8.30
2023-05-12T00:45:15.979Z,8.28
2023-05-12T00:47:46.750Z,8.27
2023-05-12T00:50:15.429Z,8.27
2023-05-12T00:52:43.930Z,8.26
2023-05-12T00:55:12.146Z,8.27
2023-05-12T00:57:41.182Z,8.25
2023-05-12T01:00:10.789Z,8.24
2023-05-12T01:02:40.101Z,8.24
2023-05-12T01:05:10.018Z,8.24
2023-05-12T01:07:39.725Z,8.22
2023-05-12T01:10:20.627Z,8.21
2023-05-12T01:12:48.910Z,8.18
2023-05-12T01:15:18.411Z,8.15
2023-05-12T01:17:57.593Z,8.14
2023-05-12T01:20:27.220Z,8.11
2023-05-12T01:22:57.055Z,8.10
2023-05-12T01:25:31.285Z,8.09
2023-05-12T01:28:01.405Z,8.07
2023-05-12T01:30:30.315Z,8.06
2023-05-12T01:32:58.922Z,8.07
2023-05-12T01:35:27.051Z,8.06
2023-05-12T01:38:00.607Z,8.04
2023-05-12T01:40:28.856Z,8.05
2023-05-12T01:42:57.944Z,8.05
2023-05-12T01:45:27.368Z,8.05
2023-05-12T01:47:55.531Z,8.04
2023-05-12T01:50:23.608Z,8.05
2023-05-12T01:52:51.641Z,8.05
2023-05-12T01:55:20.937Z,8.04
2023-05-12T01:57:55.302Z,8.06
2023-05-12T02:00:23.747Z,8.06
2023-05-12T02:02:52.730Z,8.07
2023-05-12T02:05:20.789Z,8.09
2023-05-12T02:07:50.273Z,8.10
2023-05-12T02:10:18.780Z,8.11
2023-05-12T02:12:47.073Z,8.12
2023-05-12T02:15:15.085Z,8.13
2023-05-12T02:17:46.611Z,8.10
2023-05-12T02:20:15.303Z,8.10
2023-05-12T02:22:44.313Z,8.12
2023-05-12T02:25:12.584Z,8.11
2023-05-12T02:27:40.874Z,8.12
2023-05-12T02:30:09.750Z,8.14
2023-05-12T02:32:38.046Z,8.15
2023-05-12T02:35:08.485Z,8.15
2023-05-12T02:37:37.386Z,8.15
2023-05-12T02:40:06.901Z,8.13
2023-05-12T02:42:36.296Z,8.16
2023-05-12T02:45:04.554Z,8.18
2023-05-12T02:47:33.164Z,8.18
2023-05-12T02:50:01.412Z,8.20
2023-05-12T02:52:29.918Z,8.23
2023-05-12T02:54:57.948Z,8.24
2023-05-12T02:57:27.510Z,8.26
2023-05-12T02:59:55.482Z,8.27
2023-05-12T03:02:23.984Z,8.33
2023-05-12T03:04:52.280Z,8.35
2023-05-12T03:07:20.440Z,8.36
2023-05-12T03:09:48.879Z,8.40
2023-05-12T03:12:17.543Z,8.44
2023-05-12T03:14:45.849Z,8.46
2023-05-12T03:17:14.127Z,8.47
2023-05-12T03:19:42.802Z,8.48
2023-05-12T03:22:10.781Z,8.54
2023-05-12T03:24:39.046Z,8.50
2023-05-12T03:27:08.161Z,8.54
2023-05-12T03:29:38.886Z,8.55
2023-05-12T03:32:07.258Z,8.60
2023-05-12T03:34:35.566Z,8.60
2023-05-12T03:37:03.988Z,8.62
2023-05-12T03:39:31.997Z,8.69
2023-05-12T03:42:00.059Z,8.72
2023-05-12T03:44:27.987Z,8.76
2023-05-12T03:46:58.113Z,8.79
2023-05-12T03:49:26.583Z,8.81
2023-05-12T03:51:54.667Z,8.88
2023-05-12T03:54:23.729Z,8.93
2023-05-12T03:56:53.887Z,8.97
2023-05-12T03:59:21.944Z,9.01
2023-05-12T04:01:53.516Z,9.04
2023-05-12T04:04:22.166Z,9.12
2023-05-12T04:06:52.191Z,9.07
2023-05-12T04:09:21.422Z,9.14
2023-05-12T04:11:49.426Z,9.21
2023-05-12T04:14:18.072Z,9.24
2023-05-12T04:16:46.109Z,9.29
2023-05-12T04:19:15.306Z,9.21
2023-05-12T04:21:44.733Z,9.30
2023-05-12T04:24:12.991Z,9.34
2023-05-12T04:26:41.009Z,9.39
2023-05-12T04:29:09.583Z,9.44
2023-05-12T04:31:39.024Z,9.45
2023-05-12T04:34:07.832Z,9.46
2023-05-12T04:36:36.388Z,9.52
2023-05-12T04:39:05.576Z,9.55
2023-05-12T04:41:34.685Z,9.57
2023-05-12T04:44:03.539Z,9.61
2023-05-12T04:46:31.772Z,9.65
2023-05-12T04:49:01.002Z,9.69
2023-05-12T04:51:29.132Z,9.64
2023-05-12T04:53:57.116Z,9.64
2023-05-12T04:56:25.288Z,9.75
2023-05-12T04:58:53.543Z,9.75
2023-05-12T05:01:21.988Z,9.80
2023-05-12T05:03:51.031Z,9.86
2023-05-12T05:06:19.734Z,9.87
2023-05-12T05:08:49.588Z,9.95
2023-05-12T05:11:18.845Z,10.00
2023-05-12T05:13:47.551Z,10.13
2023-05-12T05:16:16.282Z,10.21
2023-05-12T05:18:47.732Z,10.25
2023-05-12T05:21:16.344Z,10.34
2023-05-12T05:23:45.034Z,10.34
2023-05-12T05:26:13.275Z,10.39
2023-05-12T05:28:41.510Z,10.43
2023-05-12T05:31:16.822Z,10.57
2023-05-12T05:33:45.082Z,10.65
2023-05-12T05:36:14.234Z,10.71
2023-05-12T05:38:42.561Z,10.75
2023-05-12T05:41:10.724Z,10.89
2023-05-12T05:43:38.818Z,11.04
2023-05-12T05:46:09.275Z,11.14
2023-05-12T05:48:37.628Z,11.14
2023-05-12T05:51:07.460Z,11.23
2023-05-12T05:53:35.916Z,11.19
2023-05-12T05:56:05.761Z,11.26
2023-05-12T05:58:37.625Z,11.27
2023-05-12T06:01:05.967Z,11.38
2023-05-12T06:03:34.240Z,11.43
2023-05-12T06:06:03.063Z,11.49
2023-05-12T06:08:32.571Z,11.53
2023-05-12T06:11:01.881Z,11.60
2023-05-12T06:13:30.651Z,11.59
2023-05-12T06:15:58.911Z,11.57
2023-05-12T06:18:27.732Z,11.72
2023-05-12T06:20:56.886Z,11.83
2023-05-12T06:23:25.731Z,11.90
2023-05-12T06:25:53.955Z,11.99
2023-05-12T06:28:22.047Z,12.06
2023-05-12T06:30:51.490Z,12.03
2023-05-12T06:33:21.653Z,12.16
2023-05-12T06:35:50.359Z,12.11
2023-05-12T06:38:19.689Z,12.24
2023-05-12T06:40:48.008Z,12.42
2023-05-12T06:43:16.984Z,12.54
2023-05-12T06:45:46.658Z,12.60
2023-05-12T06:48:15.208Z,12.61
2023-05-12T06:50:47.268Z,12.68
2023-05-12T06:53:16.477Z,12.85
2023-05-12T06:55:46.417Z,12.80
2023-05-12T06:58:15.556Z,12.90
2023-05-12T07:00:44.431Z,13.00
2023-05-12T07:03:12.785Z,13.05
2023-05-12T07:05:41.376Z,13.13
2023-05-12T07:08:10.671Z,13.27
2023-05-12T07:10:40.570Z,13.12
2023-05-12T07:13:10.080Z,13.35
2023-05-12T07:15:38.172Z,13.38
2023-05-12T07:18:06.707Z,13.35
2023-05-12T07:20:35.715Z,13.50
2023-05-12T07:23:07.235Z,13.52
2023-05-12T07:25:36.094Z,13.54
2023-05-12T07:28:14.425Z,13.61
2023-05-12T07:30:42.391Z,13.60
2023-05-12T07:33:10.932Z,13.70
2023-05-12T07:35:39.798Z,13.79
2023-05-12T07:38:11.911Z,13.91
2023-05-12T07:40:40.678Z,13.95
2023-05-12T07:43:09.094Z,14.05
2023-05-12T07:45:38.285Z,14.14
2023-05-12T07:48:06.774Z,14.44
2023-05-12T07:50:35.080Z,14.41
2023-05-12T07:53:04.455Z,14.56
2023-05-12T07:55:37.158Z,14.63
2023-05-12T07:58:06.130Z,14.73
2023-05-12T08:00:35.249Z,14.81
2023-05-12T08:03:05.012Z,14.74
2023-05-12T08:05:35.510Z,14.92
2023-05-12T08:08:03.981Z,15.04
2023-05-12T08:10:33.291Z,15.11
2023-05-12T08:13:01.464Z,15.34
2023-05-12T08:15:29.590Z,15.30
2023-05-12T08:17:58.140Z,15.52
2023-05-12T08:20:26.792Z,15.40
2023-05-12T08:22:55.706Z,15.58
2023-05-12T08:25:23.983Z,15.62
2023-05-12T08:27:52.182Z,15.60
2023-05-12T08:30:21.092Z,15.73
2023-05-12T08:32:49.342Z,15.76
2023-05-12T08:35:20.816Z,15.62
2023-05-12T08:37:49.279Z,15.67
2023-05-12T08:40:56.303Z,15.56
2023-05-12T08:43:32.643Z,15.38
2023-05-12T08:46:02.788Z,15.62
2023-05-12T08:48:35.428Z,15.84
2023-05-12T08:51:06.761Z,15.82
2023-05-12T08:53:37.075Z,15.97
2023-05-12T08:58:45.100Z,15.48
2023-05-12T09:01:15.456Z,15.39
2023-05-12T09:03:43.858Z,15.50
2023-05-12T09:06:17.074Z,15.72
2023-05-12T09:08:54.746Z,15.80
2023-05-12T09:11:27.502Z,15.67
2023-05-12T09:14:03.488Z,15.31
2023-05-12T09:16:41.496Z,15.42
2023-05-12T09:19:12.259Z,15.52
2023-05-12T09:21:42.541Z,15.31
2023-05-12T09:24:12.873Z,15.42
2023-05-12T09:26:53.856Z,15.24
2023-05-12T09:29:31.468Z,15.37
2023-05-12T09:32:03.270Z,15.47
2023-05-12T09:34:35.714Z,15.46
2023-05-12T09:37:06.962Z,15.44
2023-05-12T09:39:36.507Z,15.46
2023-05-12T09:42:11.312Z,15.48
2023-05-12T09:44:40.246Z,15.44
2023-05-12T09:47:10.376Z,15.46
2023-05-12T09:49:47.944Z,15.05
2023-05-12T09:52:16.848Z,14.85
2023-05-12T09:54:45.895Z,14.88
2023-05-12T09:57:17.219Z,14.59
2023-05-12T09:59:47.659Z,14.79
2023-05-12T10:02:17.123Z,14.98
2023-05-12T10:04:53.467Z,15.08
2023-05-12T10:07:28.479Z,15.17
2023-05-12T10:10:01.434Z,15.18
2023-05-12T10:12:30.824Z,15.30
2023-05-12T10:15:00.499Z,15.30
2023-05-12T10:17:30.099Z,15.50
2023-05-12T10:19:58.640Z,15.61
2023-05-12T10:22:30.720Z,15.59
2023-05-12T10:25:00.013Z,15.64
2023-05-12T10:27:29.749Z,15.29
2023-05-12T10:30:01.521Z,15.41
2023-05-12T10:32:29.742Z,15.38
2023-05-12T10:35:13.062Z,14.95
2023-05-12T10:37:43.558Z,14.70
2023-05-12T10:40:23.745Z,14.82
2023-05-12T10:42:56.115Z,14.76
2023-05-12T10:45:24.858Z,14.83
2023-05-12T10:48:09.238Z,14.81
2023-05-12T10:50:37.805Z,14.81
2023-05-12T10:53:06.147Z,14.60
2023-05-12T10:55:42.262Z,14.81
2023-05-12T10:58:12.501Z,14.80
2023-05-12T11:00:46.800Z,14.80
2023-05-12T11:03:22.149Z,14.90
2023-05-12T11:06:04.772Z,14.68
2023-05-12T11:08:35.797Z,14.58
2023-05-12T11:11:05.673Z,14.89
2023-05-12T11:13:36.432Z,14.97
2023-05-12T11:16:05.814Z,15.03
2023-05-12T11:18:34.876Z,14.99
2023-05-12T11:21:10.106Z,14.84
2023-05-12T11:23:38.426Z,14.73
2023-05-12T11:26:07.720Z,14.64
2023-05-12T11:28:41.770Z,14.44
2023-05-12T11:31:19.436Z,14.30
2023-05-12T11:33:51.852Z,14.36
2023-05-12T11:36:30.621Z,14.23
2023-05-12T11:38:59.591Z,14.28
2023-05-12T11:41:28.732Z,14.07
2023-05-12T11:43:57.660Z,13.96
2023-05-12T11:46:30.383Z,14.28
2023-05-12T11:49:00.386Z,14.26
2023-05-12T11:51:29.635Z,14.33
2023-05-12T11:53:58.849Z,14.42
2023-05-12T11:56:27.680Z,14.56
2023-05-12T11:58:58.082Z,14.66
2023-05-12T12:01:26.781Z,14.36
2023-05-12T12:03:55.950Z,14.08
2023-05-12T12:06:24.599Z,14.14
2023-05-12T12:09:00.241Z,14.23
2023-05-12T12:11:32.520Z,14.21
2023-05-12T12:14:02.498Z,14.06
2023-05-12T12:16:32.424Z,13.97
2023-05-12T12:19:02.440Z,13.62
2023-05-12T12:21:33.895Z,13.38
2023-05-12T12:24:02.297Z,13.12
2023-05-12T12:26:31.078Z,13.14
2023-05-12T12:28:59.537Z,13.08
2023-05-12T12:31:28.015Z,13.01
2023-05-12T12:34:00.077Z,12.90
2023-05-12T12:36:28.452Z,12.76
2023-05-12T12:38:57.422Z,12.69
2023-05-12T12:41:26.036Z,12.69
2023-05-12T12:43:57.791Z,12.84
2023-05-12T12:46:26.630Z,13.10
2023-05-12T12:48:59.191Z,13.03
2023-05-12T12:51:42.118Z,13.02
2023-05-12T12:54:14.111Z,12.99
2023-05-12T12:56:44.957Z,13.06
2023-05-12T12:59:13.371Z,12.90
2023-05-12T13:01:41.870Z,13.05
2023-05-12T13:04:12.788Z,13.22
2023-05-12T13:06:43.236Z,13.17
2023-05-12T13:09:11.592Z,13.00
2023-05-12T13:11:41.312Z,12.77
2023-05-12T13:14:13.100Z,12.75
2023-05-12T13:16:42.603Z,12.71
2023-05-12T13:19:14.518Z,12.62
2023-05-12T13:21:42.987Z,12.45
2023-05-12T13:24:15.002Z,12.74
2023-05-12T13:27:21.791Z,12.82
2023-05-12T13:29:50.495Z,12.78
2023-05-12T13:32:20.767Z,12.73
2023-05-12T13:34:49.034Z,12.93
2023-05-12T13:37:19.545Z,13.22
2023-05-12T13:39:47.881Z,13.52
2023-05-12T13:42:17.660Z,13.47
2023-05-12T13:44:46.893Z,13.57
2023-05-12T13:47:49.392Z,13.42
2023-05-12T13:50:22.364Z,13.54
2023-05-12T13:52:53.484Z,13.71
2023-05-12T13:55:22.974Z,13.53
2023-05-12T13:57:51.999Z,13.22
2023-05-12T14:00:24.666Z,13.24
2023-05-12T14:02:53.115Z,13.20
2023-05-12T14:05:21.653Z,13.32
2023-05-12T14:07:52.055Z,12.99
2023-05-12T14:10:20.356Z,12.64
2023-05-12T14:12:48.610Z,12.57
2023-05-12T14:17:49.646Z,12.74
2023-05-12T14:20:18.338Z,12.74
2023-05-12T14:22:47.127Z,12.63
2023-05-12T14:25:16.374Z,12.76
2023-05-12T14:27:45.443Z,12.76
2023-05-12T14:30:14.055Z,12.73
2023-05-12T14:32:42.561Z,12.59
2023-05-12T14:35:11.949Z,12.77
2023-05-12T14:37:42.670Z,12.89
2023-05-12T14:40:12.435Z,12.82
2023-05-12T14:42:40.619Z,12.73
2023-05-12T14:45:09.412Z,12.56
2023-05-12T14:47:37.988Z,12.53
2023-05-12T14:50:07.471Z,12.74
2023-05-12T14:52:39.577Z,13.04
2023-05-12T14:55:12.472Z,13.20
2023-05-12T14:57:44.758Z,13.38
2023-05-12T15:00:16.121Z,13.28
2023-05-12T15:02:45.688Z,13.34
2023-05-12T15:05:14.559Z,13.46
2023-05-12T15:07:45.017Z,13.40
2023-05-12T15:10:15.747Z,13.55
2023-05-12T15:12:43.762Z,13.31
2023-05-12T15:15:12.366Z,13.36
2023-05-12T15:17:40.930Z,13.24
2023-05-12T15:20:10.227Z,13.24
2023-05-12T15:22:40.511Z,13.12
2023-05-12T15:25:09.494Z,12.73
2023-05-12T15:27:40.358Z,12.66
2023-05-12T15:30:09.024Z,12.67
2023-05-12T15:32:40.658Z,12.64
2023-05-12T15:35:10.058Z,12.56
2023-05-12T15:37:39.198Z,12.50
2023-05-12T15:40:10.321Z,12.49
2023-05-12T15:42:39.961Z,12.52
2023-05-12T15:45:09.654Z,12.56
2023-05-12T15:47:37.938Z,12.58
2023-05-12T15:50:07.226Z,12.59
2023-05-12T15:52:35.732Z,12.50
2023-05-12T15:55:03.958Z,12.42
2023-05-12T15:57:33.438Z,12.40
2023-05-12T16:00:02.315Z,12.25
2023-05-12T16:02:41.251Z,12.13
2023-05-12T16:05:10.462Z,11.83
2023-05-12T16:07:39.279Z,11.87
2023-05-12T16:10:09.713Z,11.72
2023-05-12T16:12:37.764Z,11.55
2023-05-12T16:15:06.242Z,11.45
2023-05-12T16:17:34.297Z,11.61
2023-05-12T16:20:02.649Z,11.57
2023-05-12T16:22:31.201Z,11.59
2023-05-12T16:24:59.432Z,11.62
2023-05-12T16:27:27.498Z,11.55
2023-05-12T16:29:55.611Z,11.47
2023-05-12T16:32:26.332Z,11.39
2023-05-12T16:34:54.494Z,11.37
2023-05-12T16:37:43.896Z,11.33
2023-05-12T16:40:13.018Z,11.18
2023-05-12T16:42:41.890Z,11.13
2023-05-12T16:45:11.327Z,11.10
2023-05-12T16:47:42.048Z,11.13
2023-05-12T16:50:10.520Z,11.10
2023-05-12T16:52:38.840Z,11.10
2023-05-12T16:55:07.380Z,11.00
2023-05-12T16:57:36.797Z,10.98
2023-05-12T17:00:09.613Z,10.91
2023-05-12T17:02:39.168Z,10.88
2023-05-12T17:05:08.032Z,10.79
2023-05-12T17:07:36.222Z,10.78
2023-05-12T17:10:04.625Z,10.76
2023-05-12T17:12:32.799Z,10.56
2023-05-12T17:15:07.661Z,10.47
2023-05-12T17:17:42.519Z,10.45
2023-05-12T17:20:12.041Z,10.42
2023-05-12T17:22:46.908Z,10.40
2023-05-12T17:25:15.781Z,10.39
2023-05-12T17:27:45.209Z,10.37
2023-05-12T17:30:13.862Z,10.20
2023-05-12T17:32:44.927Z,10.29
2023-05-12T17:35:14.223Z,10.25
2023-05-12T17:37:42.587Z,10.20
2023-05-12T17:40:16.388Z,10.18
2023-05-12T17:42:45.299Z,10.05
2023-05-12T17:45:16.328Z,10.10
2023-05-12T17:47:45.646Z,10.01
2023-05-12T17:50:15.279Z,9.95
2023-05-12T17:52:43.754Z,9.81
2023-05-12T17:55:12.502Z,9.78
2023-05-12T17:57:42.111Z,9.73
2023-05-12T18:00:11.101Z,9.74
2023-05-12T18:02:45.787Z,9.79
2023-05-12T18:05:14.214Z,9.75
2023-05-12T18:07:42.332Z,9.75
2023-05-12T18:10:12.273Z,9.67
2023-05-12T18:12:40.462Z,9.65
2023-05-12T18:15:09.129Z,9.60
2023-05-12T18:17:37.470Z,9.58
2023-05-12T18:20:06.739Z,9.53
2023-05-12T18:22:35.615Z,9.52
2023-05-12T18:25:04.032Z,9.56
2023-05-12T18:27:32.121Z,9.56
2023-05-12T18:30:01.519Z,9.60
2023-05-12T18:32:31.087Z,9.59
2023-05-12T18:34:59.835Z,9.60
2023-05-12T18:37:28.363Z,9.58
2023-05-12T18:39:58.426Z,9.60
2023-05-12T18:42:26.596Z,9.59
2023-05-12T18:44:55.204Z,9.58
2023-05-12T18:47:23.396Z,9.60
2023-05-12T18:49:51.356Z,9.59
2023-05-12T18:52:20.933Z,9.57
2023-05-12T18:54:50.223Z,9.52
2023-05-12T18:57:19.632Z,9.53
2023-05-12T18:59:48.139Z,9.56
2023-05-12T19:02:17.458Z,9.56
2023-05-12T19:04:45.544Z,9.57
2023-05-12T19:07:15.610Z,9.58
2023-05-12T19:09:44.366Z,9.55
2023-05-12T19:12:12.535Z,9.51
2023-05-12T19:14:40.897Z,9.46
2023-05-12T19:17:08.947Z,9.44
2023-05-12T19:19:39.833Z,9.49
2023-05-12T19:22:07.872Z,9.51
2023-05-12T19:24:38.059Z,9.47
2023-05-12T19:27:06.336Z,9.45
2023-05-12T19:29:36.496Z,9.45
2023-05-12T19:32:05.635Z,9.38
2023-05-12T19:34:36.382Z,9.40
2023-05-12T19:37:06.592Z,9.40
2023-05-12T19:39:34.873Z,9.42
2023-05-12T19:42:03.004Z,9.38
2023-05-12T19:44:31.481Z,9.35
2023-05-12T19:47:04.980Z,9.34
2023-05-12T19:49:36.156Z,9.35
2023-05-12T19:52:06.087Z,9.24
2023-05-12T19:54:34.341Z,9.28
2023-05-12T19:57:02.540Z,9.30
2023-05-12T19:59:31.152Z,9.23
2023-05-12T20:01:59.245Z,9.28
2023-05-12T20:04:30.347Z,9.27
2023-05-12T20:06:58.548Z,9.28
2023-05-12T20:09:27.088Z,9.24
2023-05-12T20:11:55.074Z,9.25
2023-05-12T20:14:23.139Z,9.21
2023-05-12T20:16:51.394Z,9.14
2023-05-12T20:19:19.518Z,9.13
2023-05-12T20:21:47.605Z,9.09
2023-05-12T20:24:15.701Z,9.12
2023-05-12T20:26:43.763Z,9.07
2023-05-12T20:29:12.093Z,9.06
2023-05-12T20:31:40.085Z,9.06
2023-05-12T20:34:08.056Z,9.06
2023-05-12T20:36:36.181Z,9.02
2023-05-12T20:39:04.837Z,9.02
2023-05-12T20:41:32.868Z,8.98
2023-05-12T20:44:00.958Z,8.98
2023-05-12T20:46:30.837Z,8.90
2023-05-12T20:48:59.473Z,8.93
2023-05-12T20:51:30.006Z,8.90
2023-05-12T20:54:01.114Z,8.90
2023-05-12T20:56:29.242Z,8.87
2023-05-12T20:58:57.688Z,8.87
2023-05-12T21:01:26.321Z,8.88
2023-05-12T21:03:54.642Z,8.90
2023-05-12T21:06:22.865Z,8.90
2023-05-12T21:08:50.959Z,8.89
2023-05-12T21:11:19.519Z,8.87
2023-05-12T21:13:48.339Z,8.84
2023-05-12T21:16:16.741Z,8.81
2023-05-12T21:18:45.092Z,8.76
2023-05-12T21:21:13.282Z,8.81
2023-05-12T21:23:41.341Z,8.83
2023-05-12T21:26:10.618Z,8.89
2023-05-12T21:28:38.661Z,8.90
2023-05-12T21:31:06.819Z,8.93
2023-05-12T21:33:34.954Z,8.93
2023-05-12T21:36:03.505Z,8.92
2023-05-12T21:38:32.949Z,8.85
2023-05-12T21:41:01.032Z,8.85
2023-05-12T21:43:29.220Z,8.88
2023-05-12T21:46:02.046Z,8.89
2023-05-12T21:48:30.274Z,8.91
2023-05-12T21:51:02.802Z,8.93
2023-05-12T21:53:31.249Z,8.93
2023-05-12T21:55:59.390Z,8.92
2023-05-12T21:58:28.357Z,8.91
2023-05-12T22:00:57.052Z,8.94
2023-05-12T22:03:26.059Z,8.94
2023-05-12T22:05:54.182Z,8.94
2023-05-12T22:08:22.244Z,8.95
2023-05-12T22:10:50.344Z,8.94
2023-05-12T22:13:19.204Z,8.96
2023-05-12T22:15:47.336Z,8.95
2023-05-12T22:18:15.417Z,8.96
2023-05-12T22:20:43.797Z,8.95
2023-05-12T22:23:11.832Z,8.94
2023-05-12T22:25:40.022Z,8.89
2023-05-12T22:28:08.050Z,8.85
2023-05-12T22:30:36.514Z,8.80
2023-05-12T22:33:04.595Z,8.73
2023-05-12T22:35:33.111Z,8.70
2023-05-12T22:38:01.271Z,8.57
2023-05-12T22:40:29.633Z,8.45
2023-05-12T22:42:57.965Z,8.41
2023-05-12T22:45:26.112Z,8.37
2023-05-12T22:47:54.388Z,8.32
2023-05-12T22:50:23.000Z,8.32
2023-05-12T22:52:57.000Z,8.30
2023-05-12T22:55:27.437Z,8.25
2023-05-12T22:57:56.796Z,8.24
2023-05-12T23:00:24.823Z,8.15
2023-05-12T23:02:53.628Z,8.16
2023-05-12T23:05:22.058Z,8.12
2023-05-12T23:07:50.858Z,8.13
2023-05-12T23:10:19.054Z,8.09
2023-05-12T23:12:47.308Z,8.09
2023-05-12T23:15:15.994Z,8.04
2023-05-12T23:17:44.048Z,8.07
2023-05-12T23:20:12.494Z,8.05
2023-05-12T23:22:40.409Z,8.03
2023-05-12T23:25:09.482Z,8.03
2023-05-12T23:27:37.865Z,7.99
2023-05-12T23:30:06.711Z,7.97
2023-05-12T23:32:35.148Z,7.96
2023-05-12T23:35:04.114Z,7.96
2023-05-12T23:37:32.390Z,7.97
2023-05-12T23:40:00.351Z,7.98
2023-05-12T23:42:28.363Z,7.89
2023-05-12T23:44:57.155Z,7.89
2023-05-12T23:47:25.292Z,7.82
2023-05-12T23:49:53.455Z,7.78
2023-05-12T23:52:21.425Z,7.78
2023-05-12T23:54:49.482Z,7.76
2023-05-12T23:57:17.464Z,7.79
2023-05-12T23:59:45.581Z,7.79
